All Spectrum Aviation - Van Nuys Airport - KVNY

HOME

Van Nuys Tower Recordings

Condor Squadron KVNY Webcam

Visit our Electronics Store

Condor Squadron Webcam - Van Nuys Airport - KVNY
Picture taken: Thu, 19 Jul 2018 09:28:36 -0700
YouTube Channel!    Latest Timelapse Movie    Full Size Image    Regular Size Image    

2018/07/19 15:51 KVNY 191551Z 00000KT 10SM CLR 26/17 A2998 RMK AO2 SLP143 T02560172

HOME

Van Nuys Tower Recordings

Condor Squadron KVNY Webcam

Visit our Electronics Store